createdAt,value
2022-10-30T00:01:13.038Z,101233.16
2022-10-30T00:03:39.576Z,101241.06
2022-10-30T00:06:06.508Z,101244.09
2022-10-30T00:08:33.605Z,101260.75
2022-10-30T00:11:13.749Z,101246.16
2022-10-30T00:13:42.478Z,101227.47
2022-10-30T00:16:09.803Z,101225.75
2022-10-30T00:18:38.372Z,101232.22
2022-10-30T00:21:09.684Z,101224.84
2022-10-30T00:23:36.153Z,101232.84
2022-10-30T00:26:08.075Z,101239.38
2022-10-30T00:28:34.876Z,101233.13
2022-10-30T00:31:05.281Z,101244.94
2022-10-30T00:33:32.145Z,101240.78
2022-10-30T00:35:59.505Z,101232.97
2022-10-30T00:38:26.207Z,101222.28
2022-10-30T00:40:52.719Z,101230.91
2022-10-30T00:43:35.213Z,101221.72
2022-10-30T00:46:16.531Z,101230.31
2022-10-30T00:48:48.213Z,101235.19
2022-10-30T00:51:15.080Z,101231.88
2022-10-30T00:53:42.982Z,101228.84
2022-10-30T00:56:11.525Z,101228.88
2022-10-30T00:58:52.839Z,101231.69
2022-10-30T01:01:24.421Z,101224.97
2022-10-30T01:03:54.582Z,101220.38
2022-10-30T01:06:22.861Z,101214.69
2022-10-30T01:08:55.291Z,101214.69
2022-10-30T01:11:25.812Z,101217.94
2022-10-30T01:13:55.957Z,101219.28
2022-10-30T01:16:42.879Z,101218.44
2022-10-30T01:19:25.262Z,101219.78
2022-10-30T01:22:13.578Z,101218.38
2022-10-30T01:24:40.054Z,101222.69
2022-10-30T01:27:36.328Z,101218.91
2022-10-30T01:30:31.104Z,101214.53
2022-10-30T01:33:24.344Z,101215.88
2022-10-30T01:36:11.225Z,101217.78
2022-10-30T01:38:44.352Z,101216.38
2022-10-30T01:41:10.878Z,101211.72
2022-10-30T01:43:38.263Z,101221.88
2022-10-30T01:46:17.028Z,101221.28
2022-10-30T01:49:03.311Z,101218.69
2022-10-30T01:52:13.644Z,101226.97
2022-10-30T01:54:53.548Z,101224.31
2022-10-30T01:57:31.878Z,101226.00
2022-10-30T02:00:04.165Z,101220.31
2022-10-30T02:02:39.721Z,101229.88
2022-10-30T02:05:09.851Z,101233.13
2022-10-30T02:07:36.765Z,101226.88
2022-10-30T02:10:05.489Z,101228.00
2022-10-30T02:12:32.077Z,101234.31
2022-10-30T02:15:00.709Z,101241.69
2022-10-30T02:17:28.321Z,101240.38
2022-10-30T02:19:55.111Z,101237.72
2022-10-30T02:22:24.764Z,101238.22
2022-10-30T02:24:52.692Z,101236.88
2022-10-30T02:27:23.072Z,101236.09
2022-10-30T02:29:49.820Z,101228.75
2022-10-30T02:32:16.545Z,101225.78
2022-10-30T02:34:44.089Z,101236.31
2022-10-30T02:37:10.796Z,101235.03
2022-10-30T02:39:38.524Z,101230.41
2022-10-30T02:42:05.718Z,101232.44
2022-10-30T02:44:32.224Z,101237.38
2022-10-30T02:46:58.687Z,101245.38
2022-10-30T02:49:25.173Z,101236.09
2022-10-30T02:51:51.966Z,101234.25
2022-10-30T02:54:18.498Z,101233.94
2022-10-30T02:56:45.584Z,101227.38
2022-10-30T02:59:12.185Z,101228.75
2022-10-30T03:01:38.886Z,101228.53
2022-10-30T03:04:05.522Z,101230.31
2022-10-30T03:06:32.123Z,101226.56
2022-10-30T03:08:58.908Z,101231.59
2022-10-30T03:11:26.034Z,101235.44
2022-10-30T03:13:54.583Z,101229.50
2022-10-30T03:16:26.670Z,101238.59
2022-10-30T03:18:55.255Z,101226.59
2022-10-30T03:21:25.397Z,101224.50
2022-10-30T03:23:52.456Z,101235.72
2022-10-30T03:26:20.272Z,101225.34
2022-10-30T03:28:50.704Z,101232.22
2022-10-30T03:31:19.177Z,101229.22
2022-10-30T03:33:48.543Z,101233.31
2022-10-30T03:36:15.711Z,101230.31
2022-10-30T03:38:43.428Z,101230.53
2022-10-30T03:41:13.368Z,101231.28
2022-10-30T03:43:39.847Z,101235.97
2022-10-30T03:46:06.420Z,101234.03
2022-10-30T03:48:33.664Z,101234.59
2022-10-30T03:51:00.223Z,101230.25
2022-10-30T03:53:29.088Z,101235.44
2022-10-30T03:56:01.004Z,101232.75
2022-10-30T03:58:36.347Z,101228.63
2022-10-30T04:01:05.915Z,101225.75
2022-10-30T04:03:35.849Z,101232.53
2022-10-30T04:06:03.024Z,101229.84
2022-10-30T04:08:29.474Z,101229.84
2022-10-30T04:10:57.047Z,101224.97
2022-10-30T04:13:23.613Z,101232.16
2022-10-30T04:15:57.239Z,101225.94
2022-10-30T04:18:26.113Z,101228.16
2022-10-30T04:20:53.664Z,101233.31
2022-10-30T04:23:21.474Z,101228.94
2022-10-30T04:25:48.349Z,101229.47
2022-10-30T04:28:15.420Z,101230.81
2022-10-30T04:30:42.541Z,101230.03
2022-10-30T04:33:12.900Z,101239.03
2022-10-30T04:35:42.520Z,101237.38
2022-10-30T04:38:16.053Z,101229.47
2022-10-30T04:40:44.447Z,101237.44
2022-10-30T04:43:13.811Z,101228.16
2022-10-30T04:45:41.940Z,101229.47
2022-10-30T04:48:12.570Z,101227.84
2022-10-30T04:50:39.517Z,101224.59
2022-10-30T04:53:10.241Z,101223.25
2022-10-30T04:55:36.688Z,101221.09
2022-10-30T04:58:04.367Z,101222.72
2022-10-30T05:00:35.372Z,101221.38
2022-10-30T05:03:19.418Z,101218.63
2022-10-30T05:05:47.933Z,101219.47
2022-10-30T05:08:14.565Z,101226.03
2022-10-30T05:10:41.185Z,101225.78
2022-10-30T05:13:11.608Z,101217.63
2022-10-30T05:15:38.363Z,101220.16
2022-10-30T05:18:04.923Z,101220.19
2022-10-30T05:20:31.550Z,101224.09
2022-10-30T05:22:59.764Z,101229.31
2022-10-30T05:25:27.941Z,101225.22
2022-10-30T05:27:59.764Z,101229.34
2022-10-30T05:30:30.731Z,101229.38
2022-10-30T05:33:03.468Z,101229.97
2022-10-30T05:35:32.656Z,101229.75
2022-10-30T05:38:00.559Z,101238.50
2022-10-30T05:40:27.737Z,101239.88
2022-10-30T05:42:54.424Z,101228.69
2022-10-30T05:45:22.252Z,101236.38
2022-10-30T05:48:04.282Z,101231.97
2022-10-30T05:50:37.353Z,101238.28
2022-10-30T05:53:33.044Z,101233.09
2022-10-30T05:56:00.267Z,101240.78
2022-10-30T05:58:31.342Z,101240.78
2022-10-30T06:01:05.441Z,101243.25
2022-10-30T06:03:39.841Z,101235.63
2022-10-30T06:06:07.000Z,101235.91
2022-10-30T06:08:33.525Z,101235.09
2022-10-30T06:11:05.640Z,101243.56
2022-10-30T06:13:38.920Z,101256.41
2022-10-30T06:16:16.303Z,101253.72
2022-10-30T06:19:18.901Z,101255.09
2022-10-30T06:21:49.235Z,101257.00
2022-10-30T06:24:35.951Z,101257.81
2022-10-30T06:27:22.371Z,101257.81
2022-10-30T06:29:49.190Z,101269.53
2022-10-30T06:32:16.001Z,101273.38
2022-10-30T06:34:44.832Z,101270.91
2022-10-30T06:37:13.039Z,101274.16
2022-10-30T06:39:39.964Z,101277.44
2022-10-30T06:42:29.306Z,101283.44
2022-10-30T06:45:08.319Z,101281.31
2022-10-30T06:47:36.166Z,101272.53
2022-10-30T06:50:04.351Z,101290.00
2022-10-30T06:52:30.989Z,101287.53
2022-10-30T06:54:57.611Z,101288.59
2022-10-30T06:57:41.328Z,101284.00
2022-10-30T07:00:20.917Z,101280.69
2022-10-30T07:03:13.951Z,101284.25
2022-10-30T07:05:40.724Z,101286.16
2022-10-30T07:08:07.280Z,101281.19
2022-10-30T07:10:34.300Z,101281.16
2022-10-30T07:13:23.866Z,101284.94
2022-10-30T07:16:03.114Z,101293.94
2022-10-30T07:18:36.335Z,101290.38
2022-10-30T07:21:02.947Z,101298.78
2022-10-30T07:23:30.800Z,101293.00
2022-10-30T07:26:08.569Z,101282.00
2022-10-30T07:28:44.043Z,101292.34
2022-10-30T07:31:34.780Z,101287.09
2022-10-30T07:34:16.746Z,101294.97
2022-10-30T07:37:03.177Z,101291.09
2022-10-30T07:39:39.462Z,101285.88
2022-10-30T07:42:21.671Z,101288.28
2022-10-30T07:45:07.367Z,101288.50
2022-10-30T07:47:52.678Z,101287.38
2022-10-30T07:50:29.589Z,101282.13
2022-10-30T07:52:56.229Z,101285.63
2022-10-30T07:55:26.415Z,101278.19
2022-10-30T07:57:52.918Z,101283.31
2022-10-30T08:00:57.796Z,101280.78
2022-10-30T08:03:30.813Z,101288.16
2022-10-30T08:06:04.931Z,101290.81
2022-10-30T08:08:37.837Z,101285.88
2022-10-30T08:11:23.735Z,101292.38
2022-10-30T08:13:50.864Z,101301.13
2022-10-30T08:16:18.456Z,101307.41
2022-10-30T08:18:44.959Z,101303.88
2022-10-30T08:21:11.678Z,101304.69
2022-10-30T08:23:47.531Z,101306.56
2022-10-30T08:26:16.952Z,101313.13
2022-10-30T08:28:43.486Z,101306.25
2022-10-30T08:31:11.312Z,101311.38
2022-10-30T08:33:56.250Z,101316.22
2022-10-30T08:36:49.425Z,101312.38
2022-10-30T08:39:17.416Z,101317.50
2022-10-30T08:41:59.043Z,101325.66
2022-10-30T08:44:28.179Z,101334.84
2022-10-30T08:47:27.101Z,101327.31
2022-10-30T08:49:54.072Z,101338.19
2022-10-30T08:52:24.992Z,101337.84
2022-10-30T08:54:55.165Z,101335.78
2022-10-30T08:57:23.916Z,101335.34
2022-10-30T08:59:51.507Z,101338.56
2022-10-30T09:02:50.289Z,101336.78
2022-10-30T09:05:32.104Z,101340.19
2022-10-30T09:08:24.787Z,101344.63
2022-10-30T09:11:26.525Z,101345.13
2022-10-30T09:13:53.345Z,101350.78
2022-10-30T09:16:19.957Z,101343.88
2022-10-30T09:18:46.396Z,101346.78
2022-10-30T09:21:12.919Z,101346.09
2022-10-30T09:23:44.377Z,101348.50
2022-10-30T09:26:29.719Z,101348.66
2022-10-30T09:29:16.512Z,101355.75
2022-10-30T09:32:05.058Z,101355.97
2022-10-30T09:34:32.591Z,101355.94
2022-10-30T09:37:06.141Z,101353.69
2022-10-30T09:39:36.394Z,101344.53
2022-10-30T09:42:25.159Z,101352.38
2022-10-30T09:45:30.157Z,101351.16
2022-10-30T09:48:14.440Z,101355.31
2022-10-30T09:51:35.345Z,101346.97
2022-10-30T09:54:12.040Z,101347.38
2022-10-30T09:57:01.077Z,101336.59
2022-10-30T09:59:45.561Z,101343.50
2022-10-30T10:02:28.238Z,101345.94
2022-10-30T10:05:06.049Z,101348.16
2022-10-30T10:08:03.870Z,101344.56
2022-10-30T10:10:57.730Z,101344.16
2022-10-30T10:13:57.322Z,101348.91
2022-10-30T10:16:29.088Z,101335.88
2022-10-30T10:19:08.971Z,101330.16
2022-10-30T10:21:58.254Z,101329.44
2022-10-30T10:24:29.364Z,101327.16
2022-10-30T10:27:18.238Z,101327.22
2022-10-30T10:30:06.617Z,101330.25
2022-10-30T10:33:11.331Z,101329.28
2022-10-30T10:35:53.358Z,101328.97
2022-10-30T10:38:39.243Z,101323.03
2022-10-30T10:41:21.412Z,101318.53
2022-10-30T10:44:12.796Z,101318.72
2022-10-30T10:46:42.200Z,101313.25
2022-10-30T10:49:35.866Z,101310.97
2022-10-30T10:52:13.263Z,101307.94
2022-10-30T10:54:44.984Z,101308.81
2022-10-30T10:57:25.888Z,101298.28
2022-10-30T11:00:00.966Z,101297.47
2022-10-30T11:02:33.503Z,101294.22
2022-10-30T11:05:05.973Z,101290.00
2022-10-30T11:07:37.080Z,101288.16
2022-10-30T11:10:18.301Z,101296.44
2022-10-30T11:12:45.456Z,101283.81
2022-10-30T11:15:33.132Z,101280.91
2022-10-30T11:21:16.493Z,101287.06
2022-10-30T11:23:48.711Z,101286.13
2022-10-30T11:26:18.232Z,101282.91
2022-10-30T11:28:55.138Z,101278.50
2022-10-30T11:31:37.902Z,101279.03
2022-10-30T11:34:19.885Z,101280.78
2022-10-30T11:36:48.679Z,101277.06
2022-10-30T11:39:22.531Z,101268.94
2022-10-30T11:42:01.835Z,101273.81
2022-10-30T11:44:38.467Z,101274.81
2022-10-30T11:47:07.864Z,101266.22
2022-10-30T11:49:52.577Z,101266.38
2022-10-30T11:52:26.417Z,101260.22
2022-10-30T11:54:57.305Z,101258.59
2022-10-30T11:57:42.380Z,101254.38
2022-10-30T12:00:21.555Z,101249.50
2022-10-30T12:02:51.522Z,101247.69
2022-10-30T12:05:27.170Z,101246.03
2022-10-30T12:07:55.337Z,101248.97
2022-10-30T12:10:26.414Z,101252.22
2022-10-30T12:12:53.329Z,101239.72
2022-10-30T12:15:24.339Z,101239.84
2022-10-30T12:18:03.057Z,101234.47
2022-10-30T12:20:30.040Z,101232.00
2022-10-30T12:22:57.860Z,101230.19
2022-10-30T12:25:32.035Z,101234.34
2022-10-30T12:28:07.758Z,101236.91
2022-10-30T12:30:47.904Z,101236.06
2022-10-30T12:33:25.020Z,101237.88
2022-10-30T12:35:58.965Z,101232.19
2022-10-30T12:38:38.088Z,101234.16
2022-10-30T12:41:20.569Z,101231.00
2022-10-30T12:43:58.283Z,101233.88
2022-10-30T12:46:40.349Z,101237.31
2022-10-30T12:49:31.849Z,101235.44
2022-10-30T12:52:07.486Z,101227.84
2022-10-30T12:54:42.472Z,101232.13
2022-10-30T12:57:12.133Z,101226.44
2022-10-30T13:00:14.651Z,101219.94
2022-10-30T13:03:19.985Z,101222.72
2022-10-30T13:06:10.622Z,101214.44
2022-10-30T13:08:46.028Z,101216.84
2022-10-30T13:11:44.306Z,101217.00
2022-10-30T13:14:18.479Z,101214.72
2022-10-30T13:16:45.043Z,101205.81
2022-10-30T13:19:13.473Z,101210.41
2022-10-30T13:21:46.047Z,101204.06
2022-10-30T13:24:19.075Z,101211.75
2022-10-30T13:27:07.636Z,101209.03
2022-10-30T13:29:40.245Z,101213.34
2022-10-30T13:32:17.468Z,101209.16
2022-10-30T13:35:15.703Z,101213.38
2022-10-30T13:37:47.401Z,101205.78
2022-10-30T13:40:38.358Z,101210.47
2022-10-30T13:43:28.652Z,101200.06
2022-10-30T13:46:02.003Z,101202.81
2022-10-30T13:49:09.457Z,101206.06
2022-10-30T13:51:45.229Z,101208.53
2022-10-30T13:54:22.446Z,101203.00
2022-10-30T13:56:50.532Z,101204.13
2022-10-30T13:59:44.341Z,101202.81
2022-10-30T14:02:40.764Z,101201.91
2022-10-30T14:05:26.155Z,101202.25
2022-10-30T14:08:06.375Z,101197.81
2022-10-30T14:10:46.104Z,101196.69
2022-10-30T14:13:26.850Z,101200.06
2022-10-30T14:16:02.528Z,101202.19
2022-10-30T14:18:44.498Z,101195.88
2022-10-30T14:21:34.938Z,101204.97
2022-10-30T14:24:12.156Z,101205.81
2022-10-30T14:26:45.267Z,101203.09
2022-10-30T14:29:32.955Z,101192.72
2022-10-30T14:32:00.521Z,101194.66
2022-10-30T14:34:51.564Z,101194.03
2022-10-30T14:37:24.120Z,101191.44
2022-10-30T14:39:51.701Z,101187.19
2022-10-30T14:42:44.212Z,101184.59
2022-10-30T14:45:27.906Z,101188.31
2022-10-30T14:48:13.193Z,101179.28
2022-10-30T14:50:58.429Z,101179.97
2022-10-30T14:53:46.785Z,101175.28
2022-10-30T14:59:13.824Z,101185.03
2022-10-30T15:01:50.403Z,101180.69
2022-10-30T15:04:40.514Z,101177.78
2022-10-30T15:07:24.431Z,101188.00
2022-10-30T15:09:51.449Z,101193.50
2022-10-30T15:12:48.750Z,101193.53
2022-10-30T15:15:18.820Z,101196.28
2022-10-30T15:17:48.250Z,101189.16
2022-10-30T15:20:36.923Z,101191.75
2022-10-30T15:23:18.972Z,101194.31
2022-10-30T15:25:54.837Z,101191.09
2022-10-30T15:31:00.296Z,101191.31
2022-10-30T15:33:32.909Z,101187.13
2022-10-30T15:35:59.605Z,101187.59
2022-10-30T15:38:26.064Z,101187.72
2022-10-30T15:40:59.083Z,101184.63
2022-10-30T15:43:35.368Z,101177.78
2022-10-30T15:46:09.496Z,101177.25
2022-10-30T15:48:39.226Z,101177.06
2022-10-30T15:51:23.149Z,101187.19
2022-10-30T15:54:00.842Z,101183.59
2022-10-30T15:56:41.134Z,101189.16
2022-10-30T15:59:36.735Z,101185.34
2022-10-30T16:02:03.765Z,101194.66
2022-10-30T16:04:36.589Z,101191.84
2022-10-30T16:07:17.813Z,101191.78
2022-10-30T16:09:59.291Z,101191.09
2022-10-30T16:12:27.868Z,101188.97
2022-10-30T16:14:56.274Z,101187.13
2022-10-30T16:17:25.457Z,101181.44
2022-10-30T16:19:56.614Z,101193.72
2022-10-30T16:22:33.901Z,101187.50
2022-10-30T16:25:07.306Z,101192.81
2022-10-30T16:27:33.851Z,101185.97
2022-10-30T16:30:01.016Z,101183.56
2022-10-30T16:32:31.161Z,101185.59
2022-10-30T16:35:00.295Z,101190.41
2022-10-30T16:37:34.007Z,101194.97
2022-10-30T16:40:06.560Z,101190.47
2022-10-30T16:42:33.750Z,101204.13
2022-10-30T16:45:33.780Z,101197.50
2022-10-30T16:48:09.244Z,101193.56
2022-10-30T16:50:38.419Z,101196.53
2022-10-30T16:53:19.303Z,101192.53
2022-10-30T16:55:46.197Z,101193.75
2022-10-30T16:58:14.646Z,101196.59
2022-10-30T17:00:47.927Z,101201.38
2022-10-30T17:03:14.550Z,101199.63
2022-10-30T17:05:44.641Z,101198.59
2022-10-30T17:08:17.015Z,101207.22
2022-10-30T17:10:59.540Z,101205.97
2022-10-30T17:13:36.856Z,101208.00
2022-10-30T17:16:24.796Z,101208.09
2022-10-30T17:18:54.367Z,101208.13
2022-10-30T17:21:35.360Z,101213.69
2022-10-30T17:24:03.238Z,101208.28
2022-10-30T17:26:31.953Z,101215.47
2022-10-30T17:28:58.518Z,101216.06
2022-10-30T17:31:37.024Z,101221.56
2022-10-30T17:34:03.544Z,101213.91
2022-10-30T17:36:30.084Z,101212.91
2022-10-30T17:38:56.557Z,101218.47
2022-10-30T17:41:23.142Z,101218.25
2022-10-30T17:43:53.075Z,101215.25
2022-10-30T17:46:20.843Z,101228.75
2022-10-30T17:48:47.717Z,101227.72
2022-10-30T17:51:15.322Z,101237.31
2022-10-30T17:53:42.247Z,101230.81
2022-10-30T17:56:17.674Z,101241.56
2022-10-30T17:58:44.151Z,101239.41
2022-10-30T18:01:25.731Z,101253.97
2022-10-30T18:03:57.503Z,101253.47
2022-10-30T18:06:27.246Z,101256.28
2022-10-30T18:08:54.519Z,101259.59
2022-10-30T18:11:23.727Z,101267.81
2022-10-30T18:13:51.925Z,101264.84
2022-10-30T18:16:19.365Z,101262.69
2022-10-30T18:18:46.060Z,101265.41
2022-10-30T18:21:17.941Z,101273.34
2022-10-30T18:23:52.451Z,101272.84
2022-10-30T18:26:25.011Z,101269.84
2022-10-30T18:28:51.958Z,101268.22
2022-10-30T18:31:21.173Z,101266.06
2022-10-30T18:33:48.525Z,101274.84
2022-10-30T18:36:20.513Z,101277.88
2022-10-30T18:38:47.344Z,101269.97
2022-10-30T18:41:20.742Z,101283.34
2022-10-30T18:43:47.630Z,101286.91
2022-10-30T18:46:15.616Z,101294.03
2022-10-30T18:48:42.302Z,101290.69
2022-10-30T18:51:17.943Z,101296.13
2022-10-30T18:53:54.305Z,101298.72
2022-10-30T18:56:28.816Z,101303.06
2022-10-30T18:59:01.556Z,101297.81
2022-10-30T19:01:30.837Z,101297.22
2022-10-30T19:04:00.699Z,101299.16
2022-10-30T19:06:27.205Z,101298.31
2022-10-30T19:08:54.117Z,101296.09
2022-10-30T19:11:24.564Z,101290.09
2022-10-30T19:13:53.438Z,101292.84
2022-10-30T19:16:21.561Z,101295.88
2022-10-30T19:18:49.116Z,101297.28
2022-10-30T19:21:21.503Z,101294.03
2022-10-30T19:23:49.368Z,101297.06
2022-10-30T19:26:17.545Z,101296.22
2022-10-30T19:28:45.522Z,101297.63
2022-10-30T19:31:17.717Z,101306.94
2022-10-30T19:33:44.940Z,101314.34
2022-10-30T19:36:28.257Z,101311.97
2022-10-30T19:38:55.492Z,101313.34
2022-10-30T19:41:22.877Z,101317.84
2022-10-30T19:43:49.513Z,101314.63
2022-10-30T19:46:16.288Z,101314.16
2022-10-30T19:48:59.289Z,101322.72
2022-10-30T19:51:28.873Z,101318.66
2022-10-30T19:53:56.163Z,101314.06
2022-10-30T19:56:23.514Z,101314.09
2022-10-30T19:58:50.337Z,101316.88
2022-10-30T20:01:17.325Z,101321.28
2022-10-30T20:03:43.898Z,101326.50
2022-10-30T20:06:13.708Z,101320.81
2022-10-30T20:08:40.233Z,101330.66
2022-10-30T20:11:07.215Z,101329.91
2022-10-30T20:13:34.071Z,101328.03
2022-10-30T20:16:04.631Z,101335.97
2022-10-30T20:18:34.119Z,101340.41
2022-10-30T20:21:03.023Z,101333.56
2022-10-30T20:23:29.542Z,101337.16
2022-10-30T20:26:06.393Z,101336.09
2022-10-30T20:28:37.123Z,101341.03
2022-10-30T20:31:04.761Z,101345.94
2022-10-30T20:33:31.392Z,101344.34
2022-10-30T20:35:57.909Z,101343.81
2022-10-30T20:38:29.353Z,101348.22
2022-10-30T20:40:57.419Z,101351.00
2022-10-30T20:43:37.893Z,101355.66
2022-10-30T20:46:07.347Z,101355.09
2022-10-30T20:48:33.808Z,101359.75
2022-10-30T20:51:04.192Z,101359.75
2022-10-30T20:53:30.651Z,101369.59
2022-10-30T20:55:57.507Z,101358.94
2022-10-30T20:58:24.161Z,101357.00
2022-10-30T21:00:51.277Z,101363.00
2022-10-30T21:03:18.158Z,101358.09
2022-10-30T21:05:46.036Z,101360.84
2022-10-30T21:08:14.060Z,101366.00
2022-10-30T21:10:41.543Z,101370.09
2022-10-30T21:13:09.550Z,101365.19
2022-10-30T21:15:42.949Z,101366.81
2022-10-30T21:18:11.251Z,101371.72
2022-10-30T21:20:37.819Z,101371.72
2022-10-30T21:23:05.293Z,101365.47
2022-10-30T21:25:32.457Z,101377.53
2022-10-30T21:27:59.314Z,101378.38
2022-10-30T21:30:26.132Z,101383.84
2022-10-30T21:32:52.623Z,101388.78
2022-10-30T21:35:19.600Z,101389.63
2022-10-30T21:37:46.107Z,101390.19
2022-10-30T21:40:13.225Z,101398.41
2022-10-30T21:42:39.717Z,101395.41
2022-10-30T21:45:07.068Z,101395.41
2022-10-30T21:47:34.308Z,101409.06
2022-10-30T21:50:00.791Z,101406.34
2022-10-30T21:52:27.194Z,101413.16
2022-10-30T21:54:53.751Z,101420.28
2022-10-30T21:57:20.547Z,101415.88
2022-10-30T21:59:47.045Z,101417.56
2022-10-30T22:02:15.222Z,101424.38
2022-10-30T22:04:42.181Z,101421.09
2022-10-30T22:07:08.727Z,101418.38
2022-10-30T22:09:35.292Z,101426.31
2022-10-30T22:12:03.515Z,101417.81
2022-10-30T22:14:30.060Z,101425.75
2022-10-30T22:16:56.716Z,101423.03
2022-10-30T22:19:23.297Z,101420.84
2022-10-30T22:21:49.839Z,101418.94
2022-10-30T22:24:17.251Z,101415.97
2022-10-30T22:26:44.178Z,101413.50
2022-10-30T22:29:11.570Z,101426.03
2022-10-30T22:31:38.176Z,101427.97
2022-10-30T22:34:04.843Z,101419.50
2022-10-30T22:36:32.937Z,101422.50
2022-10-30T22:39:05.822Z,101429.88
2022-10-30T22:41:37.356Z,101430.41
2022-10-30T22:44:07.428Z,101430.69
2022-10-30T22:46:34.407Z,101435.06
2022-10-30T22:49:00.883Z,101432.31
2022-10-30T22:51:28.157Z,101440.78
2022-10-30T22:53:59.797Z,101438.59
2022-10-30T22:56:28.782Z,101448.97
2022-10-30T22:58:56.151Z,101442.16
2022-10-30T23:01:27.212Z,101450.09
2022-10-30T23:03:59.021Z,101453.34
2022-10-30T23:06:26.570Z,101453.88
2022-10-30T23:08:55.483Z,101466.44
2022-10-30T23:11:23.222Z,101470.28
2022-10-30T23:13:50.631Z,101468.63
2022-10-30T23:16:20.663Z,101460.44
2022-10-30T23:18:47.914Z,101476.56
2022-10-30T23:21:20.800Z,101483.09
2022-10-30T23:23:47.561Z,101488.81
2022-10-30T23:26:17.963Z,101491.00
2022-10-30T23:28:45.981Z,101485.81
2022-10-30T23:31:19.795Z,101477.91
2022-10-30T23:33:48.647Z,101484.75
2022-10-30T23:36:16.113Z,101482.28
2022-10-30T23:38:42.841Z,101484.19
2022-10-30T23:41:09.597Z,101491.00
2022-10-30T23:43:36.058Z,101493.16
2022-10-30T23:46:02.553Z,101489.91
2022-10-30T23:48:29.100Z,101492.63
2022-10-30T23:50:55.733Z,101497.81
2022-10-30T23:53:22.289Z,101495.09
2022-10-30T23:55:50.910Z,101485.53
2022-10-30T23:58:17.660Z,101494.00
